»·PEaware :: N717TS KAWO-KBLI

N717TS :: KAWO-KBLI

FLIGHT INFORMATION

Flight Status: Arrived
Operator: Privately registered:
United States
More flights under this callsign
Pilot: Ty S. (2873)
Aircraft: Diamond DA-62
(DA62)
More flights by this aircraft type
Origin: KAWO Arlington Mun
United States
Destination: KBLI Bellingham Intl
United States
More flights between these airports :: More routes between these airports
Route:
File this flight plan on PilotEdge
Remarks:
Altitude:
(Current/Filed)
4,500ft
Speed:
(Current/Filed)
180kts
Departed: 08-May-20 03:32 PM
Arrived: 08-May-20 03:53 PM
Distance/Time
Traveled:
41nm/0:21
Distance/Time
To Go:
Arrived

Flight Plot

Page will automatically refresh every two minutes.

Flight plan parsing failed; only flown route is shown


Map Options




Map Legend


Flown Route
Filed Route
Departure Airport
Arrival Airport
Navaid (VOR, NDB)
Fix

Horizontal Profiles

Position Reports

Time Latitude Longitude Heading Altitude Ground
Speed
08-May-20 14:41 48.160718 -122.153756 89 136ft 0kts
08-May-20 14:42 48.160718 -122.153756 89 136ft 0kts
08-May-20 14:43 48.160718 -122.153756 89 136ft 0kts
08-May-20 14:44 48.160718 -122.153756 89 136ft 0kts
08-May-20 14:45 48.160718 -122.153756 89 136ft 0kts
08-May-20 14:46 48.160718 -122.153756 89 136ft 0kts
08-May-20 14:47 48.160718 -122.153756 89 136ft 0kts
08-May-20 14:48 48.160718 -122.153756 89 136ft 0kts
08-May-20 14:49 48.160718 -122.153756 89 136ft 0kts
08-May-20 14:50 48.160718 -122.153756 89 136ft 0kts
08-May-20 14:51 48.160718 -122.153756 89 136ft 0kts
08-May-20 14:52 48.160718 -122.153756 89 136ft 0kts
08-May-20 14:53 48.160718 -122.153756 89 136ft 0kts
08-May-20 14:54 48.160718 -122.153756 89 136ft 0kts
08-May-20 14:55 48.160718 -122.153756 89 136ft 0kts
08-May-20 14:56 48.160718 -122.153756 89 136ft 0kts
08-May-20 14:57 48.160718 -122.153756 89 136ft 0kts
08-May-20 14:58 48.160718 -122.153756 89 136ft 0kts
08-May-20 14:59 48.160718 -122.153756 89 136ft 0kts
08-May-20 15:00 48.160718 -122.153756 89 136ft 0kts
08-May-20 15:01 48.160718 -122.153756 89 136ft 0kts
08-May-20 15:02 48.160718 -122.153756 89 136ft 0kts
08-May-20 15:03 48.160718 -122.153756 89 136ft 0kts
08-May-20 15:04 48.160718 -122.153756 89 136ft 0kts
08-May-20 15:05 48.160718 -122.153756 89 136ft 0kts
08-May-20 15:06 48.160718 -122.153756 89 136ft 0kts
08-May-20 15:07 48.160718 -122.153756 89 136ft 0kts
08-May-20 15:08 48.160718 -122.153756 89 136ft 0kts
08-May-20 15:09 48.160718 -122.153756 89 136ft 0kts
08-May-20 15:10 48.160718 -122.153756 89 136ft 0kts
08-May-20 15:11 48.160718 -122.153756 89 136ft 0kts
08-May-20 15:12 48.160718 -122.153756 89 136ft 0kts
08-May-20 15:13 48.160718 -122.153756 89 136ft 0kts
08-May-20 15:14 48.160718 -122.153756 89 136ft 0kts
08-May-20 15:15 48.160718 -122.153756 89 136ft 0kts
08-May-20 15:16 48.160718 -122.153756 89 136ft 0kts
08-May-20 15:17 48.160718 -122.153756 89 136ft 0kts
08-May-20 15:18 48.160718 -122.153756 89 136ft 0kts
08-May-20 15:19 48.160718 -122.153756 89 136ft 0kts
08-May-20 15:20 48.160718 -122.153756 89 136ft 0kts
08-May-20 15:21 48.160718 -122.153756 89 136ft 0kts
08-May-20 15:22 48.160718 -122.153756 89 136ft 0kts
08-May-20 15:23 48.160718 -122.153756 89 136ft 0kts
08-May-20 15:24 48.160718 -122.153756 89 136ft 0kts
08-May-20 15:25 48.160718 -122.153756 89 136ft 0kts
08-May-20 15:26 48.160718 -122.153756 89 136ft 0kts
08-May-20 15:27 48.160718 -122.153756 89 136ft 0kts
08-May-20 15:28 48.160571 -122.153490 185 136ft 5kts
08-May-20 15:29 48.157924 -122.154217 182 133ft 14kts
08-May-20 15:30 48.156452 -122.154764 359 131ft 29kts
08-May-20 15:31 48.179944 -122.153629 356 1021ft 98kts
08-May-20 15:32 48.207276 -122.158064 332 2332ft 101kts
08-May-20 15:33 48.230717 -122.182373 325 3453ft 114kts
08-May-20 15:34 48.261282 -122.220207 320 3568ft 159kts
08-May-20 15:35 48.296483 -122.264968 319 3513ft 166kts
08-May-20 15:36 48.332615 -122.307283 327 3473ft 163kts
08-May-20 15:37 48.371186 -122.340745 330 3576ft 159kts
08-May-20 15:38 48.409608 -122.377476 327 3481ft 163kts
08-May-20 15:39 48.447434 -122.414440 327 3482ft 162kts
08-May-20 15:40 48.487196 -122.446143 331 3477ft 162kts
08-May-20 15:41 48.528148 -122.473594 338 3481ft 161kts
08-May-20 15:42 48.569616 -122.499357 338 3464ft 162kts
08-May-20 15:43 48.611653 -122.523956 339 3456ft 162kts
08-May-20 15:44 48.653753 -122.549191 342 3443ft 163kts
08-May-20 15:45 48.697485 -122.560432 356 2913ft 161kts
08-May-20 15:46 48.741198 -122.569654 353 1895ft 156kts
08-May-20 15:47 48.781485 -122.587550 340 1511ft 144kts
08-May-20 15:48 48.815470 -122.588646 68 1462ft 135kts
08-May-20 15:50 48.787102 -122.563420 175 1544ft 144kts
08-May-20 15:51 48.760630 -122.547381 91 950ft 93kts
08-May-20 15:52 48.779205 -122.537635 4 298ft 76kts
08-May-20 15:53 48.791055 -122.535930 38 158ft 10kts
08-May-20 15:54 48.792478 -122.533543 207 157ft 6kts
08-May-20 15:55 48.792406 -122.533716 236 157ft 0kts
08-May-20 15:56 48.792406 -122.533716 236 157ft 0kts
08-May-20 15:57 48.792406 -122.533716 236 157ft 0kts
08-May-20 15:58 48.792406 -122.533716 236 157ft 0kts
08-May-20 15:59 48.792406 -122.533716 236 157ft 0kts

Navigation Log

Ident Type
Flight plan parsing failed, navigation log unavailable